sensor_id;sensor_type;location;lat;lon;timestamp;pressure;altitude;pressure_sealevel;temperature;humidity
39455;BME280;25155;41.890;23.446;2024-03-06T00:00:30;91544.44;;;3.86;64.79
39455;BME280;25155;41.890;23.446;2024-03-06T00:02:59;91552.44;;;3.84;64.52
39455;BME280;25155;41.890;23.446;2024-03-06T00:05:26;91552.44;;;3.84;64.22
39455;BME280;25155;41.890;23.446;2024-03-06T00:07:54;91563.03;;;3.83;63.92
39455;BME280;25155;41.890;23.446;2024-03-06T00:10:21;91556.75;;;3.79;64.15
39455;BME280;25155;41.890;23.446;2024-03-06T00:12:50;91555.44;;;3.76;64.26
39455;BME280;25155;41.890;23.446;2024-03-06T00:15:17;91555.69;;;3.75;63.72
39455;BME280;25155;41.890;23.446;2024-03-06T00:17:44;91548.41;;;3.71;63.99
39455;BME280;25155;41.890;23.446;2024-03-06T00:20:12;91550.69;;;3.68;64.20
39455;BME280;25155;41.890;23.446;2024-03-06T00:22:40;91552.72;;;3.66;63.84
39455;BME280;25155;41.890;23.446;2024-03-06T00:25:07;91559.72;;;3.65;64.25
39455;BME280;25155;41.890;23.446;2024-03-06T00:27:35;91559.19;;;3.63;63.45
39455;BME280;25155;41.890;23.446;2024-03-06T00:30:05;91561.16;;;3.56;63.14
39455;BME280;25155;41.890;23.446;2024-03-06T00:32:32;91567.31;;;3.50;63.45
39455;BME280;25155;41.890;23.446;2024-03-06T00:34:59;91569.53;;;3.41;63.59
39455;BME280;25155;41.890;23.446;2024-03-06T00:37:27;91559.59;;;3.33;63.40
39455;BME280;25155;41.890;23.446;2024-03-06T00:39:54;91569.38;;;3.31;63.79
39455;BME280;25155;41.890;23.446;2024-03-06T00:42:21;91563.13;;;3.27;63.75
39455;BME280;25155;41.890;23.446;2024-03-06T00:44:49;91569.78;;;3.23;63.69
39455;BME280;25155;41.890;23.446;2024-03-06T00:47:18;91567.38;;;3.16;63.83
39455;BME280;25155;41.890;23.446;2024-03-06T00:49:46;91576.88;;;3.10;63.67
39455;BME280;25155;41.890;23.446;2024-03-06T00:52:13;91577.81;;;3.04;63.88
39455;BME280;25155;41.890;23.446;2024-03-06T00:54:40;91581.09;;;2.99;64.00
39455;BME280;25155;41.890;23.446;2024-03-06T00:57:09;91579.66;;;2.87;64.51
39455;BME280;25155;41.890;23.446;2024-03-06T00:59:37;91577.22;;;2.80;64.47
39455;BME280;25155;41.890;23.446;2024-03-06T01:02:04;91583.31;;;2.74;64.90
39455;BME280;25155;41.890;23.446;2024-03-06T01:04:33;91578.09;;;2.69;64.86
39455;BME280;25155;41.890;23.446;2024-03-06T01:07:00;91586.06;;;2.67;65.33
39455;BME280;25155;41.890;23.446;2024-03-06T01:09:27;91578.25;;;2.62;65.32
39455;BME280;25155;41.890;23.446;2024-03-06T01:11:55;91589.03;;;2.59;65.26
39455;BME280;25155;41.890;23.446;2024-03-06T01:14:22;91585.91;;;2.57;65.75
39455;BME280;25155;41.890;23.446;2024-03-06T01:16:49;91593.66;;;2.57;65.16
39455;BME280;25155;41.890;23.446;2024-03-06T01:19:16;91588.50;;;2.57;64.99
39455;BME280;25155;41.890;23.446;2024-03-06T01:21:45;91586.38;;;2.54;64.80
39455;BME280;25155;41.890;23.446;2024-03-06T01:24:14;91589.75;;;2.54;64.90
39455;BME280;25155;41.890;23.446;2024-03-06T01:26:41;91591.78;;;2.52;64.95
39455;BME280;25155;41.890;23.446;2024-03-06T01:29:09;91592.78;;;2.51;64.90
39455;BME280;25155;41.890;23.446;2024-03-06T01:31:36;91595.59;;;2.50;65.05
39455;BME280;25155;41.890;23.446;2024-03-06T01:34:03;91597.16;;;2.51;65.04
39455;BME280;25155;41.890;23.446;2024-03-06T01:36:31;91602.25;;;2.46;65.09
39455;BME280;25155;41.890;23.446;2024-03-06T01:39:00;91603.50;;;2.43;64.46
39455;BME280;25155;41.890;23.446;2024-03-06T01:41:28;91607.09;;;2.42;64.81
39455;BME280;25155;41.890;23.446;2024-03-06T01:43:55;91605.00;;;2.39;64.29
39455;BME280;25155;41.890;23.446;2024-03-06T01:46:22;91605.75;;;2.39;64.26
39455;BME280;25155;41.890;23.446;2024-03-06T01:48:50;91602.41;;;2.39;64.32
39455;BME280;25155;41.890;23.446;2024-03-06T01:51:18;91596.44;;;2.38;64.76
39455;BME280;25155;41.890;23.446;2024-03-06T01:53:45;91601.28;;;2.35;64.86
39455;BME280;25155;41.890;23.446;2024-03-06T01:56:14;91605.91;;;2.33;64.89
39455;BME280;25155;41.890;23.446;2024-03-06T01:58:45;91607.38;;;2.29;64.77
39455;BME280;25155;41.890;23.446;2024-03-06T02:01:14;91610.53;;;2.31;64.50
39455;BME280;25155;41.890;23.446;2024-03-06T02:03:43;91607.16;;;2.30;64.78
39455;BME280;25155;41.890;23.446;2024-03-06T02:06:12;91603.78;;;2.30;64.78
39455;BME280;25155;41.890;23.446;2024-03-06T02:08:44;91609.88;;;2.23;65.87
39455;BME280;25155;41.890;23.446;2024-03-06T02:11:13;91608.78;;;2.19;66.00
39455;BME280;25155;41.890;23.446;2024-03-06T02:13:42;91602.72;;;2.14;65.77
39455;BME280;25155;41.890;23.446;2024-03-06T02:16:09;91611.91;;;2.21;65.39
39455;BME280;25155;41.890;23.446;2024-03-06T02:18:37;91615.03;;;2.23;65.36
39455;BME280;25155;41.890;23.446;2024-03-06T02:21:06;91618.66;;;2.22;65.57
39455;BME280;25155;41.890;23.446;2024-03-06T02:23:34;91611.44;;;2.24;65.18
39455;BME280;25155;41.890;23.446;2024-03-06T02:26:01;91612.00;;;2.27;65.22
39455;BME280;25155;41.890;23.446;2024-03-06T02:28:28;91611.00;;;2.28;65.47
39455;BME280;25155;41.890;23.446;2024-03-06T02:30:56;91614.66;;;2.32;65.43
39455;BME280;25155;41.890;23.446;2024-03-06T02:33:23;91614.66;;;2.32;65.47
39455;BME280;25155;41.890;23.446;2024-03-06T02:35:50;91618.81;;;2.33;65.16
39455;BME280;25155;41.890;23.446;2024-03-06T02:38:19;91622.19;;;2.33;65.09
39455;BME280;25155;41.890;23.446;2024-03-06T02:40:46;91615.22;;;2.34;65.00
39455;BME280;25155;41.890;23.446;2024-03-06T02:43:14;91619.13;;;2.36;65.27
39455;BME280;25155;41.890;23.446;2024-03-06T02:45:41;91623.53;;;2.36;65.25
39455;BME280;25155;41.890;23.446;2024-03-06T02:48:09;91618.03;;;2.32;65.04
39455;BME280;25155;41.890;23.446;2024-03-06T02:50:36;91622.09;;;2.28;64.97
39455;BME280;25155;41.890;23.446;2024-03-06T02:53:04;91628.50;;;2.25;64.96
39455;BME280;25155;41.890;23.446;2024-03-06T02:55:32;91629.44;;;2.19;65.17
39455;BME280;25155;41.890;23.446;2024-03-06T02:58:01;91630.66;;;2.17;64.61
39455;BME280;25155;41.890;23.446;2024-03-06T03:00:29;91633.47;;;2.15;64.57
39455;BME280;25155;41.890;23.446;2024-03-06T03:02:57;91633.16;;;2.12;64.64
39455;BME280;25155;41.890;23.446;2024-03-06T03:05:24;91634.97;;;2.11;64.95
39455;BME280;25155;41.890;23.446;2024-03-06T03:07:52;91635.19;;;2.10;64.79
39455;BME280;25155;41.890;23.446;2024-03-06T03:10:19;91640.81;;;2.06;64.32
39455;BME280;25155;41.890;23.446;2024-03-06T03:12:48;91639.94;;;2.01;64.06
39455;BME280;25155;41.890;23.446;2024-03-06T03:15:15;91647.50;;;1.91;64.44
39455;BME280;25155;41.890;23.446;2024-03-06T03:17:43;91646.03;;;1.83;64.25
39455;BME280;25155;41.890;23.446;2024-03-06T03:20:11;91649.75;;;1.75;64.56
39455;BME280;25155;41.890;23.446;2024-03-06T03:22:38;91650.19;;;1.72;64.37
39455;BME280;25155;41.890;23.446;2024-03-06T03:25:07;91647.06;;;1.70;64.72
39455;BME280;25155;41.890;23.446;2024-03-06T03:27:36;91651.13;;;1.66;64.97
39455;BME280;25155;41.890;23.446;2024-03-06T03:30:09;91642.81;;;1.64;64.41
39455;BME280;25155;41.890;23.446;2024-03-06T03:32:36;91646.97;;;1.65;64.36
39455;BME280;25155;41.890;23.446;2024-03-06T03:35:04;91651.34;;;1.64;64.32
39455;BME280;25155;41.890;23.446;2024-03-06T03:37:31;91658.28;;;1.64;64.67
39455;BME280;25155;41.890;23.446;2024-03-06T03:40:00;91659.53;;;1.61;64.69
39455;BME280;25155;41.890;23.446;2024-03-06T03:42:29;91662.69;;;1.63;64.70
39455;BME280;25155;41.890;23.446;2024-03-06T03:44:56;91664.47;;;1.63;64.76
39455;BME280;25155;41.890;23.446;2024-03-06T03:47:25;91667.97;;;1.57;64.91
39455;BME280;25155;41.890;23.446;2024-03-06T03:49:52;91678.28;;;1.45;65.58
39455;BME280;25155;41.890;23.446;2024-03-06T03:52:19;91677.84;;;1.36;65.76
39455;BME280;25155;41.890;23.446;2024-03-06T03:54:47;91675.50;;;1.35;65.46
39455;BME280;25155;41.890;23.446;2024-03-06T03:57:14;91683.78;;;1.37;65.71
39455;BME280;25155;41.890;23.446;2024-03-06T03:59:43;91674.25;;;1.37;65.47
39455;BME280;25155;41.890;23.446;2024-03-06T04:02:10;91675.59;;;1.40;65.56
39455;BME280;25155;41.890;23.446;2024-03-06T04:04:38;91681.19;;;1.37;65.02
39455;BME280;25155;41.890;23.446;2024-03-06T04:07:05;91685.09;;;1.39;64.95
39455;BME280;25155;41.890;23.446;2024-03-06T04:09:33;91687.69;;;1.39;65.04
39455;BME280;25155;41.890;23.446;2024-03-06T04:12:02;91682.88;;;1.31;64.96
39455;BME280;25155;41.890;23.446;2024-03-06T04:14:29;91686.34;;;1.25;65.55
39455;BME280;25155;41.890;23.446;2024-03-06T04:16:56;91694.09;;;1.25;65.35
39455;BME280;25155;41.890;23.446;2024-03-06T04:19:25;91701.28;;;1.23;65.47
39455;BME280;25155;41.890;23.446;2024-03-06T04:21:53;91692.72;;;1.22;65.69
39455;BME280;25155;41.890;23.446;2024-03-06T04:24:21;91693.06;;;1.26;65.27
39455;BME280;25155;41.890;23.446;2024-03-06T04:26:48;91701.81;;;1.25;65.54
39455;BME280;25155;41.890;23.446;2024-03-06T04:29:15;91692.72;;;1.22;65.49
39455;BME280;25155;41.890;23.446;2024-03-06T04:31:43;91700.69;;;1.21;65.00
39455;BME280;25155;41.890;23.446;2024-03-06T04:34:10;91700.69;;;1.21;64.98
39455;BME280;25155;41.890;23.446;2024-03-06T04:36:37;91696.34;;;1.21;65.38
39455;BME280;25155;41.890;23.446;2024-03-06T04:39:07;91695.19;;;1.17;64.77
39455;BME280;25155;41.890;23.446;2024-03-06T04:41:35;91699.56;;;1.17;65.06
39455;BME280;25155;41.890;23.446;2024-03-06T04:44:03;91698.78;;;1.16;65.24
39455;BME280;25155;41.890;23.446;2024-03-06T04:46:30;91700.03;;;1.13;65.37
39455;BME280;25155;41.890;23.446;2024-03-06T04:48:57;91698.66;;;1.11;65.01
39455;BME280;25155;41.890;23.446;2024-03-06T04:51:25;91705.63;;;1.10;64.79
39455;BME280;25155;41.890;23.446;2024-03-06T04:53:52;91703.69;;;1.06;64.89
39455;BME280;25155;41.890;23.446;2024-03-06T04:56:21;91698.22;;;1.02;64.86
39455;BME280;25155;41.890;23.446;2024-03-06T04:58:48;91707.53;;;1.03;65.06
39455;BME280;25155;41.890;23.446;2024-03-06T05:01:17;91707.75;;;1.02;65.24
39455;BME280;25155;41.890;23.446;2024-03-06T05:03:45;91702.59;;;1.02;65.33
39455;BME280;25155;41.890;23.446;2024-03-06T05:06:12;91711.31;;;1.01;64.82
39455;BME280;25155;41.890;23.446;2024-03-06T05:08:40;91709.16;;;0.98;64.79
39455;BME280;25155;41.890;23.446;2024-03-06T05:11:07;91711.41;;;0.94;65.31
39455;BME280;25155;41.890;23.446;2024-03-06T05:13:36;91722.16;;;0.91;65.21
39455;BME280;25155;41.890;23.446;2024-03-06T05:16:03;91730.47;;;0.93;64.76
39455;BME280;25155;41.890;23.446;2024-03-06T05:18:31;91728.88;;;0.92;65.33
39455;BME280;25155;41.890;23.446;2024-03-06T05:21:00;91726.75;;;0.89;65.28
39455;BME280;25155;41.890;23.446;2024-03-06T05:23:27;91733.13;;;0.86;64.82
39455;BME280;25155;41.890;23.446;2024-03-06T05:25:55;91727.84;;;0.81;64.82
39455;BME280;25155;41.890;23.446;2024-03-06T05:28:23;91740.84;;;0.86;64.36
39455;BME280;25155;41.890;23.446;2024-03-06T05:30:51;91736.59;;;0.80;64.32
39455;BME280;25155;41.890;23.446;2024-03-06T05:33:19;91747.66;;;0.81;64.68
39455;BME280;25155;41.890;23.446;2024-03-06T05:35:47;91739.94;;;0.81;64.74
39455;BME280;25155;41.890;23.446;2024-03-06T05:38:14;91748.66;;;0.80;64.86
39455;BME280;25155;41.890;23.446;2024-03-06T05:40:41;91749.13;;;0.76;64.84
39455;BME280;25155;41.890;23.446;2024-03-06T05:43:11;91751.00;;;0.69;65.43
39455;BME280;25155;41.890;23.446;2024-03-06T05:45:39;91754.69;;;0.62;66.15
39455;BME280;25155;41.890;23.446;2024-03-06T05:48:08;91754.38;;;0.51;66.58
39455;BME280;25155;41.890;23.446;2024-03-06T05:50:35;91759.28;;;0.41;67.56
39455;BME280;25155;41.890;23.446;2024-03-06T05:53:02;91760.81;;;0.30;68.23
39455;BME280;25155;41.890;23.446;2024-03-06T05:55:29;91760.97;;;0.17;69.16
39455;BME280;25155;41.890;23.446;2024-03-06T05:57:57;91772.41;;;0.02;69.77
39455;BME280;25155;41.890;23.446;2024-03-06T06:00:25;91773.03;;;-0.02;70.59
39455;BME280;25155;41.890;23.446;2024-03-06T06:02:52;91776.09;;;-0.12;71.47
39455;BME280;25155;41.890;23.446;2024-03-06T06:05:20;91772.72;;;-0.31;71.87
39455;BME280;25155;41.890;23.446;2024-03-06T06:07:48;91769.47;;;-0.45;72.84
39455;BME280;25155;41.890;23.446;2024-03-06T06:10:15;91775.69;;;-0.53;73.51
39455;BME280;25155;41.890;23.446;2024-03-06T06:12:43;91771.69;;;-0.48;73.69
39455;BME280;25155;41.890;23.446;2024-03-06T06:15:11;91767.66;;;-0.38;74.04
39455;BME280;25155;41.890;23.446;2024-03-06T06:17:38;91762.25;;;-0.29;74.61
39455;BME280;25155;41.890;23.446;2024-03-06T06:20:07;91768.09;;;-0.22;74.71
39455;BME280;25155;41.890;23.446;2024-03-06T06:22:41;91766.00;;;-0.13;74.36
39455;BME280;25155;41.890;23.446;2024-03-06T06:25:08;91765.66;;;0.01;75.11
39455;BME280;25155;41.890;23.446;2024-03-06T06:27:35;91759.59;;;0.14;74.46
39455;BME280;25155;41.890;23.446;2024-03-06T06:30:04;91759.00;;;0.31;74.85
39455;BME280;25155;41.890;23.446;2024-03-06T06:32:32;91755.63;;;0.49;74.58
39455;BME280;25155;41.890;23.446;2024-03-06T06:34:59;91755.03;;;0.65;74.42
39455;BME280;25155;41.890;23.446;2024-03-06T06:37:26;91756.53;;;0.85;73.94
39455;BME280;25155;41.890;23.446;2024-03-06T06:39:54;91756.47;;;1.03;74.03
39455;BME280;25155;41.890;23.446;2024-03-06T06:42:21;91748.66;;;1.22;73.36
39455;BME280;25155;41.890;23.446;2024-03-06T06:44:50;91754.81;;;1.32;73.72
39455;BME280;25155;41.890;23.446;2024-03-06T06:47:17;91757.88;;;1.41;73.70
39455;BME280;25155;41.890;23.446;2024-03-06T06:49:44;91764.16;;;1.45;73.55
39455;BME280;25155;41.890;23.446;2024-03-06T06:52:12;91758.22;;;1.57;73.36
39455;BME280;25155;41.890;23.446;2024-03-06T06:54:39;91760.13;;;1.73;73.77
39455;BME280;25155;41.890;23.446;2024-03-06T06:57:07;91752.69;;;1.88;73.38
39455;BME280;25155;41.890;23.446;2024-03-06T06:59:35;91753.91;;;2.10;73.91
39455;BME280;25155;41.890;23.446;2024-03-06T07:02:02;91752.75;;;2.29;73.81
39455;BME280;25155;41.890;23.446;2024-03-06T07:04:30;91759.09;;;2.50;74.11
39455;BME280;25155;41.890;23.446;2024-03-06T07:06:57;91758.94;;;2.69;73.93
39455;BME280;25155;41.890;23.446;2024-03-06T07:09:24;91747.63;;;2.87;73.68
39455;BME280;25155;41.890;23.446;2024-03-06T07:11:55;91756.50;;;3.08;73.72
39455;BME280;25155;41.890;23.446;2024-03-06T07:14:24;91750.09;;;3.27;73.05
39455;BME280;25155;41.890;23.446;2024-03-06T07:16:51;91754.25;;;3.45;72.81
39455;BME280;25155;41.890;23.446;2024-03-06T07:19:18;91754.53;;;3.66;73.00
39455;BME280;25155;41.890;23.446;2024-03-06T07:21:45;91751.22;;;3.87;71.84
39455;BME280;25155;41.890;23.446;2024-03-06T07:24:13;91741.50;;;4.12;71.42
39455;BME280;25155;41.890;23.446;2024-03-06T07:26:40;91741.25;;;4.35;70.39
39455;BME280;25155;41.890;23.446;2024-03-06T07:29:07;91746.63;;;4.51;69.53
39455;BME280;25155;41.890;23.446;2024-03-06T07:31:42;91745.69;;;4.62;69.31
39455;BME280;25155;41.890;23.446;2024-03-06T07:34:09;91740.63;;;4.72;69.13
39455;BME280;25155;41.890;23.446;2024-03-06T07:36:36;91732.97;;;4.82;69.25
39455;BME280;25155;41.890;23.446;2024-03-06T07:39:04;91734.16;;;4.97;69.34
39455;BME280;25155;41.890;23.446;2024-03-06T07:41:31;91736.34;;;5.10;68.74
39455;BME280;25155;41.890;23.446;2024-03-06T07:43:59;91737.47;;;5.25;69.14
39455;BME280;25155;41.890;23.446;2024-03-06T07:46:26;91747.44;;;5.38;68.20
39455;BME280;25155;41.890;23.446;2024-03-06T07:48:55;91744.97;;;5.48;67.88
39455;BME280;25155;41.890;23.446;2024-03-06T07:51:22;91752.56;;;5.60;67.44
39455;BME280;25155;41.890;23.446;2024-03-06T07:53:50;91747.44;;;5.70;66.65
39455;BME280;25155;41.890;23.446;2024-03-06T07:56:18;91739.19;;;5.79;66.80
39455;BME280;25155;41.890;23.446;2024-03-06T07:58:45;91742.69;;;5.94;66.04
39455;BME280;25155;41.890;23.446;2024-03-06T08:01:12;91745.34;;;6.05;65.13
39455;BME280;25155;41.890;23.446;2024-03-06T08:03:39;91753.19;;;6.15;65.19
39455;BME280;25155;41.890;23.446;2024-03-06T08:06:10;91758.66;;;6.24;65.04
39455;BME280;25155;41.890;23.446;2024-03-06T08:08:40;91750.94;;;6.34;65.05
39455;BME280;25155;41.890;23.446;2024-03-06T08:11:07;91743.50;;;6.48;65.15
39455;BME280;25155;41.890;23.446;2024-03-06T08:13:36;91752.91;;;6.59;64.28
39455;BME280;25155;41.890;23.446;2024-03-06T08:16:04;91744.59;;;6.67;63.27
39455;BME280;25155;41.890;23.446;2024-03-06T08:18:32;91751.13;;;6.75;62.24
39455;BME280;25155;41.890;23.446;2024-03-06T08:21:00;91753.47;;;6.77;60.88
39455;BME280;25155;41.890;23.446;2024-03-06T08:23:29;91753.97;;;6.74;59.51
39455;BME280;25155;41.890;23.446;2024-03-06T08:25:57;91755.56;;;6.80;60.06
39455;BME280;25155;41.890;23.446;2024-03-06T08:28:25;91759.22;;;6.89;60.62
39455;BME280;25155;41.890;23.446;2024-03-06T08:30:52;91760.28;;;7.03;60.43
39455;BME280;25155;41.890;23.446;2024-03-06T08:33:20;91747.84;;;7.16;60.89
39455;BME280;25155;41.890;23.446;2024-03-06T08:35:48;91746.81;;;7.27;60.15
39455;BME280;25155;41.890;23.446;2024-03-06T08:38:15;91745.25;;;7.41;60.28
39455;BME280;25155;41.890;23.446;2024-03-06T08:40:45;91751.50;;;7.46;58.67
39455;BME280;25155;41.890;23.446;2024-03-06T08:43:12;91754.63;;;7.58;59.28
39455;BME280;25155;41.890;23.446;2024-03-06T08:45:41;91743.19;;;7.64;58.96
39455;BME280;25155;41.890;23.446;2024-03-06T08:48:08;91751.25;;;7.78;57.54
39455;BME280;25155;41.890;23.446;2024-03-06T08:50:36;91744.47;;;7.82;57.71
39455;BME280;25155;41.890;23.446;2024-03-06T08:53:04;91742.63;;;7.88;57.12
39455;BME280;25155;41.890;23.446;2024-03-06T08:55:31;91742.13;;;7.91;57.25
39455;BME280;25155;41.890;23.446;2024-03-06T08:58:00;91738.97;;;7.99;57.93
39455;BME280;25155;41.890;23.446;2024-03-06T09:00:27;91735.31;;;8.15;56.72
39455;BME280;25155;41.890;23.446;2024-03-06T09:02:54;91736.56;;;8.28;57.07
39455;BME280;25155;41.890;23.446;2024-03-06T09:05:22;91726.38;;;8.42;56.74
39455;BME280;25155;41.890;23.446;2024-03-06T09:07:49;91722.22;;;8.46;54.63
39455;BME280;25155;41.890;23.446;2024-03-06T09:10:17;91720.41;;;8.42;53.76
39455;BME280;25155;41.890;23.446;2024-03-06T09:12:46;91715.41;;;8.50;54.62
39455;BME280;25155;41.890;23.446;2024-03-06T09:15:15;91712.50;;;8.67;53.58
39455;BME280;25155;41.890;23.446;2024-03-06T09:17:43;91718.41;;;8.83;53.82
39455;BME280;25155;41.890;23.446;2024-03-06T09:20:12;91718.06;;;8.95;53.26
39455;BME280;25155;41.890;23.446;2024-03-06T09:22:40;91701.09;;;8.98;50.80
39455;BME280;25155;41.890;23.446;2024-03-06T09:25:08;91707.91;;;8.94;51.76
39455;BME280;25155;41.890;23.446;2024-03-06T09:27:36;91701.31;;;9.06;50.78
39455;BME280;25155;41.890;23.446;2024-03-06T09:30:05;91691.63;;;9.12;50.19
39455;BME280;25155;41.890;23.446;2024-03-06T09:32:37;91691.28;;;9.24;50.71
39455;BME280;25155;41.890;23.446;2024-03-06T09:35:07;91690.88;;;9.41;51.60
39455;BME280;25155;41.890;23.446;2024-03-06T09:37:34;91689.66;;;9.62;51.15
39455;BME280;25155;41.890;23.446;2024-03-06T09:40:02;91689.03;;;9.76;50.63
39455;BME280;25155;41.890;23.446;2024-03-06T09:42:30;91693.94;;;9.82;50.15
39455;BME280;25155;41.890;23.446;2024-03-06T09:44:57;91689.94;;;9.95;51.08
39455;BME280;25155;41.890;23.446;2024-03-06T09:47:25;91686.81;;;10.17;52.03
39455;BME280;25155;41.890;23.446;2024-03-06T09:49:59;91658.81;;;10.23;50.89
39455;BME280;25155;41.890;23.446;2024-03-06T09:52:29;91674.31;;;10.58;51.10
39455;BME280;25155;41.890;23.446;2024-03-06T09:54:57;91678.56;;;10.78;52.33
39455;BME280;25155;41.890;23.446;2024-03-06T09:57:25;91669.66;;;10.98;52.19
39455;BME280;25155;41.890;23.446;2024-03-06T09:59:52;91674.09;;;11.16;51.20
39455;BME280;25155;41.890;23.446;2024-03-06T10:02:37;91665.16;;;11.17;50.15
39455;BME280;25155;41.890;23.446;2024-03-06T10:05:21;91666.44;;;11.20;50.44
39455;BME280;25155;41.890;23.446;2024-03-06T10:07:50;91668.38;;;11.33;49.35
39455;BME280;25155;41.890;23.446;2024-03-06T10:10:19;91660.91;;;11.40;49.53
39455;BME280;25155;41.890;23.446;2024-03-06T10:12:48;91659.13;;;11.55;49.44
39455;BME280;25155;41.890;23.446;2024-03-06T10:15:16;91653.69;;;11.65;46.81
39455;BME280;25155;41.890;23.446;2024-03-06T10:17:44;91643.94;;;11.71;47.97
39455;BME280;25155;41.890;23.446;2024-03-06T10:20:20;91642.03;;;11.90;48.91
39455;BME280;25155;41.890;23.446;2024-03-06T10:22:50;91633.78;;;12.11;48.93
39455;BME280;25155;41.890;23.446;2024-03-06T10:25:22;91634.94;;;12.32;47.74
39455;BME280;25155;41.890;23.446;2024-03-06T10:28:05;91630.94;;;12.49;46.97
39455;BME280;25155;41.890;23.446;2024-03-06T10:30:32;91625.59;;;12.68;47.56
39455;BME280;25155;41.890;23.446;2024-03-06T10:33:03;91629.38;;;12.75;46.66
39455;BME280;25155;41.890;23.446;2024-03-06T10:35:33;91628.59;;;12.75;45.54
39455;BME280;25155;41.890;23.446;2024-03-06T10:38:03;91626.09;;;12.70;45.19
39455;BME280;25155;41.890;23.446;2024-03-06T10:40:31;91620.53;;;12.57;43.01
39455;BME280;25155;41.890;23.446;2024-03-06T10:43:01;91617.34;;;12.19;38.85
39455;BME280;25155;41.890;23.446;2024-03-06T10:45:40;91622.88;;;11.90;40.50
39455;BME280;25155;41.890;23.446;2024-03-06T10:48:08;91627.91;;;11.72;42.68
39455;BME280;25155;41.890;23.446;2024-03-06T10:50:40;91627.22;;;11.66;42.70
39455;BME280;25155;41.890;23.446;2024-03-06T10:53:10;91622.16;;;11.70;43.05
39455;BME280;25155;41.890;23.446;2024-03-06T10:55:38;91616.22;;;11.51;43.16
39455;BME280;25155;41.890;23.446;2024-03-06T10:58:06;91626.72;;;11.32;41.45
39455;BME280;25155;41.890;23.446;2024-03-06T11:00:36;91626.38;;;11.19;40.58
39455;BME280;25155;41.890;23.446;2024-03-06T11:03:05;91620.09;;;11.01;39.73
39455;BME280;25155;41.890;23.446;2024-03-06T11:05:35;91614.94;;;10.96;40.20
39455;BME280;25155;41.890;23.446;2024-03-06T11:08:07;91615.19;;;11.14;41.38
39455;BME280;25155;41.890;23.446;2024-03-06T11:10:36;91607.56;;;11.36;40.31
39455;BME280;25155;41.890;23.446;2024-03-06T11:13:07;91608.19;;;11.61;40.50
39455;BME280;25155;41.890;23.446;2024-03-06T11:15:35;91603.28;;;11.87;39.44
39455;BME280;25155;41.890;23.446;2024-03-06T11:20:38;91584.91;;;12.15;36.74
39455;BME280;25155;41.890;23.446;2024-03-06T11:23:07;91597.94;;;11.92;37.31
39455;BME280;25155;41.890;23.446;2024-03-06T11:26:00;91612.25;;;11.53;35.50
39455;BME280;25155;41.890;23.446;2024-03-06T11:28:30;91607.34;;;11.33;37.01
39455;BME280;25155;41.890;23.446;2024-03-06T11:30:58;91607.06;;;11.34;38.30
39455;BME280;25155;41.890;23.446;2024-03-06T11:33:55;91593.41;;;11.37;40.30
39455;BME280;25155;41.890;23.446;2024-03-06T11:36:23;91596.31;;;11.50;42.67
39455;BME280;25155;41.890;23.446;2024-03-06T11:38:53;91611.00;;;11.64;44.50
39455;BME280;25155;41.890;23.446;2024-03-06T11:41:23;91611.09;;;11.73;46.25
39455;BME280;25155;41.890;23.446;2024-03-06T11:43:52;91612.09;;;11.77;47.12
39455;BME280;25155;41.890;23.446;2024-03-06T11:46:22;91597.91;;;11.78;47.79
39455;BME280;25155;41.890;23.446;2024-03-06T11:48:53;91606.75;;;11.82;47.76
39455;BME280;25155;41.890;23.446;2024-03-06T11:51:21;91597.50;;;11.57;48.53
39455;BME280;25155;41.890;23.446;2024-03-06T11:53:53;91584.94;;;11.87;48.03
39455;BME280;25155;41.890;23.446;2024-03-06T11:56:21;91592.69;;;12.06;47.93
39455;BME280;25155;41.890;23.446;2024-03-06T11:58:48;91578.28;;;12.31;48.84
39455;BME280;25155;41.890;23.446;2024-03-06T12:01:17;91587.50;;;12.56;48.73
39455;BME280;25155;41.890;23.446;2024-03-06T12:03:44;91578.72;;;12.75;46.72
39455;BME280;25155;41.890;23.446;2024-03-06T12:06:11;91566.25;;;12.81;46.05
39455;BME280;25155;41.890;23.446;2024-03-06T12:14:38;91558.94;;;12.91;36.78
39455;BME280;25155;41.890;23.446;2024-03-06T12:17:05;91559.94;;;12.82;37.25
39455;BME280;25155;41.890;23.446;2024-03-06T12:19:36;91556.88;;;12.66;37.02
39455;BME280;25155;41.890;23.446;2024-03-06T12:22:03;91554.34;;;12.61;36.13
39455;BME280;25155;41.890;23.446;2024-03-06T12:24:31;91555.69;;;12.72;37.83
39455;BME280;25155;41.890;23.446;2024-03-06T12:27:00;91532.88;;;12.81;36.61
39455;BME280;25155;41.890;23.446;2024-03-06T12:29:29;91518.66;;;12.73;38.45
39455;BME280;25155;41.890;23.446;2024-03-06T12:31:59;91545.22;;;12.94;40.88
39455;BME280;25155;41.890;23.446;2024-03-06T12:41:10;91545.44;;;13.29;42.62
39455;BME280;25155;41.890;23.446;2024-03-06T12:43:37;91544.44;;;13.48;42.42
39455;BME280;25155;41.890;23.446;2024-03-06T12:52:36;91545.47;;;13.69;42.85
39455;BME280;25155;41.890;23.446;2024-03-06T12:55:17;91541.56;;;13.98;42.83
39455;BME280;25155;41.890;23.446;2024-03-06T12:58:37;91538.69;;;14.17;40.17
39455;BME280;25155;41.890;23.446;2024-03-06T13:18:09;91525.28;;;14.71;38.03
39455;BME280;25155;41.890;23.446;2024-03-06T13:24:11;91510.75;;;15.00;40.41
39455;BME280;25155;41.890;23.446;2024-03-06T13:27:30;91509.63;;;15.19;40.15
39455;BME280;25155;41.890;23.446;2024-03-06T13:29:57;91500.31;;;15.30;37.16
39455;BME280;25155;41.890;23.446;2024-03-06T14:19:27;91512.50;;;11.36;40.88
39455;BME280;25155;41.890;23.446;2024-03-06T14:21:54;91516.84;;;11.40;40.76
39455;BME280;25155;41.890;23.446;2024-03-06T14:26:57;91518.41;;;11.41;40.69
39455;BME280;25155;41.890;23.446;2024-03-06T14:29:25;91524.09;;;11.29;40.97
39455;BME280;25155;41.890;23.446;2024-03-06T14:31:54;91521.19;;;11.31;40.48
39455;BME280;25155;41.890;23.446;2024-03-06T14:34:21;91514.22;;;11.40;40.06
39455;BME280;25155;41.890;23.446;2024-03-06T14:36:50;91526.44;;;11.45;40.35